sensor_id;sensor_type;location;lat;lon;timestamp;P1;durP1;ratioP1;P2;durP2;ratioP2
51985;SDS011;38002;53.296;6.600;2023-09-19T00:00:55;4.95;;;1.63;;
51985;SDS011;38002;53.296;6.600;2023-09-19T00:05:57;7.60;;;1.80;;
51985;SDS011;38002;53.296;6.600;2023-09-19T00:10:58;6.93;;;1.48;;
51985;SDS011;38002;53.296;6.600;2023-09-19T00:16:08;6.72;;;1.38;;
51985;SDS011;38002;53.296;6.600;2023-09-19T00:21:11;9.60;;;1.50;;
51985;SDS011;38002;53.296;6.600;2023-09-19T00:26:12;5.20;;;1.75;;
51985;SDS011;38002;53.296;6.600;2023-09-19T00:31:13;6.27;;;1.57;;
51985;SDS011;38002;53.296;6.600;2023-09-19T00:36:13;5.90;;;1.87;;
51985;SDS011;38002;53.296;6.600;2023-09-19T00:41:14;8.07;;;3.03;;
51985;SDS011;38002;53.296;6.600;2023-09-19T00:46:16;4.40;;;1.77;;
51985;SDS011;38002;53.296;6.600;2023-09-19T00:51:20;8.02;;;1.70;;
51985;SDS011;38002;53.296;6.600;2023-09-19T00:56:23;7.50;;;1.55;;
51985;SDS011;38002;53.296;6.600;2023-09-19T01:01:23;12.83;;;1.33;;
51985;SDS011;38002;53.296;6.600;2023-09-19T01:06:25;4.80;;;1.77;;
51985;SDS011;38002;53.296;6.600;2023-09-19T01:16:36;8.82;;;1.58;;
51985;SDS011;38002;53.296;6.600;2023-09-19T01:22:00;7.65;;;1.63;;
51985;SDS011;38002;53.296;6.600;2023-09-19T01:32:20;7.70;;;1.80;;
51985;SDS011;38002;53.296;6.600;2023-09-19T01:37:22;12.68;;;1.63;;
51985;SDS011;38002;53.296;6.600;2023-09-19T01:42:37;12.75;;;1.65;;
51985;SDS011;38002;53.296;6.600;2023-09-19T01:47:50;7.47;;;1.60;;
51985;SDS011;38002;53.296;6.600;2023-09-19T01:53:06;8.82;;;1.55;;
51985;SDS011;38002;53.296;6.600;2023-09-19T01:58:27;7.60;;;1.30;;
51985;SDS011;38002;53.296;6.600;2023-09-19T02:03:34;10.43;;;1.55;;
51985;SDS011;38002;53.296;6.600;2023-09-19T02:08:36;4.68;;;1.60;;
51985;SDS011;38002;53.296;6.600;2023-09-19T02:13:37;4.83;;;1.67;;
51985;SDS011;38002;53.296;6.600;2023-09-19T02:18:38;8.07;;;2.13;;
51985;SDS011;38002;53.296;6.600;2023-09-19T02:23:39;9.98;;;1.85;;
51985;SDS011;38002;53.296;6.600;2023-09-19T02:28:41;6.15;;;1.73;;
51985;SDS011;38002;53.296;6.600;2023-09-19T02:33:42;9.97;;;1.93;;
51985;SDS011;38002;53.296;6.600;2023-09-19T02:38:43;5.68;;;1.15;;
51985;SDS011;38002;53.296;6.600;2023-09-19T02:43:44;11.03;;;1.40;;
51985;SDS011;38002;53.296;6.600;2023-09-19T02:48:44;7.27;;;1.63;;
51985;SDS011;38002;53.296;6.600;2023-09-19T02:53:45;6.70;;;1.60;;
51985;SDS011;38002;53.296;6.600;2023-09-19T02:58:47;6.30;;;1.30;;
51985;SDS011;38002;53.296;6.600;2023-09-19T03:03:48;9.47;;;1.33;;
51985;SDS011;38002;53.296;6.600;2023-09-19T03:08:49;5.28;;;1.42;;
51985;SDS011;38002;53.296;6.600;2023-09-19T03:13:52;4.95;;;1.20;;
51985;SDS011;38002;53.296;6.600;2023-09-19T03:18:53;10.50;;;1.90;;
51985;SDS011;38002;53.296;6.600;2023-09-19T03:23:53;5.23;;;1.73;;
51985;SDS011;38002;53.296;6.600;2023-09-19T03:28:54;5.20;;;1.30;;
51985;SDS011;38002;53.296;6.600;2023-09-19T03:33:54;13.10;;;1.50;;
51985;SDS011;38002;53.296;6.600;2023-09-19T03:38:54;5.30;;;1.67;;
51985;SDS011;38002;53.296;6.600;2023-09-19T03:43:56;8.50;;;1.50;;
51985;SDS011;38002;53.296;6.600;2023-09-19T03:48:56;6.13;;;1.60;;
51985;SDS011;38002;53.296;6.600;2023-09-19T03:53:57;4.13;;;1.30;;
51985;SDS011;38002;53.296;6.600;2023-09-19T03:58:58;7.27;;;1.40;;
51985;SDS011;38002;53.296;6.600;2023-09-19T04:03:58;6.83;;;1.10;;
51985;SDS011;38002;53.296;6.600;2023-09-19T04:08:59;12.80;;;1.90;;
51985;SDS011;38002;53.296;6.600;2023-09-19T04:14:02;5.80;;;1.70;;
51985;SDS011;38002;53.296;6.600;2023-09-19T04:19:03;8.77;;;1.83;;
51985;SDS011;38002;53.296;6.600;2023-09-19T04:24:04;7.78;;;1.33;;
51985;SDS011;38002;53.296;6.600;2023-09-19T04:29:05;11.03;;;1.53;;
51985;SDS011;38002;53.296;6.600;2023-09-19T04:34:06;9.00;;;1.20;;
51985;SDS011;38002;53.296;6.600;2023-09-19T04:39:07;4.35;;;1.40;;
51985;SDS011;38002;53.296;6.600;2023-09-19T04:44:08;6.70;;;1.40;;
51985;SDS011;38002;53.296;6.600;2023-09-19T04:49:09;7.37;;;1.20;;
51985;SDS011;38002;53.296;6.600;2023-09-19T04:54:09;9.30;;;2.08;;
51985;SDS011;38002;53.296;6.600;2023-09-19T04:59:10;3.97;;;1.67;;
51985;SDS011;38002;53.296;6.600;2023-09-19T05:04:10;8.13;;;1.50;;
51985;SDS011;38002;53.296;6.600;2023-09-19T05:09:11;3.67;;;1.57;;
51985;SDS011;38002;53.296;6.600;2023-09-19T05:14:13;8.43;;;2.35;;
51985;SDS011;38002;53.296;6.600;2023-09-19T05:19:14;10.17;;;3.13;;
51985;SDS011;38002;53.296;6.600;2023-09-19T05:24:14;7.30;;;1.90;;
51985;SDS011;38002;53.296;6.600;2023-09-19T05:29:17;6.55;;;1.50;;
51985;SDS011;38002;53.296;6.600;2023-09-19T05:34:17;6.38;;;1.55;;
51985;SDS011;38002;53.296;6.600;2023-09-19T05:39:17;7.97;;;1.10;;
51985;SDS011;38002;53.296;6.600;2023-09-19T05:44:24;2.80;;;1.42;;
51985;SDS011;38002;53.296;6.600;2023-09-19T05:49:36;4.03;;;1.23;;
51985;SDS011;38002;53.296;6.600;2023-09-19T05:54:38;4.32;;;1.45;;
51985;SDS011;38002;53.296;6.600;2023-09-19T05:59:38;10.00;;;1.70;;
51985;SDS011;38002;53.296;6.600;2023-09-19T06:04:40;7.00;;;1.30;;
51985;SDS011;38002;53.296;6.600;2023-09-19T06:09:41;6.87;;;2.10;;
51985;SDS011;38002;53.296;6.600;2023-09-19T06:14:41;6.63;;;1.47;;
51985;SDS011;38002;53.296;6.600;2023-09-19T06:19:41;7.13;;;2.00;;
51985;SDS011;38002;53.296;6.600;2023-09-19T06:24:46;6.72;;;1.27;;
51985;SDS011;38002;53.296;6.600;2023-09-19T06:29:47;4.97;;;1.70;;
51985;SDS011;38002;53.296;6.600;2023-09-19T06:34:51;9.97;;;1.93;;
51985;SDS011;38002;53.296;6.600;2023-09-19T06:39:54;8.30;;;1.52;;
51985;SDS011;38002;53.296;6.600;2023-09-19T06:44:55;10.40;;;1.63;;
51985;SDS011;38002;53.296;6.600;2023-09-19T06:49:56;11.43;;;3.20;;
51985;SDS011;38002;53.296;6.600;2023-09-19T06:54:56;4.83;;;1.53;;
51985;SDS011;38002;53.296;6.600;2023-09-19T06:59:57;5.73;;;1.87;;
51985;SDS011;38002;53.296;6.600;2023-09-19T07:04:57;3.23;;;1.40;;
51985;SDS011;38002;53.296;6.600;2023-09-19T07:09:58;10.00;;;1.97;;
51985;SDS011;38002;53.296;6.600;2023-09-19T07:14:58;11.13;;;1.77;;
51985;SDS011;38002;53.296;6.600;2023-09-19T07:19:59;4.57;;;1.20;;
51985;SDS011;38002;53.296;6.600;2023-09-19T07:24:59;5.77;;;1.30;;
51985;SDS011;38002;53.296;6.600;2023-09-19T07:30:00;3.63;;;1.30;;
51985;SDS011;38002;53.296;6.600;2023-09-19T07:35:00;8.60;;;1.70;;
51985;SDS011;38002;53.296;6.600;2023-09-19T07:40:04;11.10;;;1.67;;
51985;SDS011;38002;53.296;6.600;2023-09-19T07:45:12;6.97;;;1.98;;
51985;SDS011;38002;53.296;6.600;2023-09-19T07:50:17;7.97;;;1.75;;
51985;SDS011;38002;53.296;6.600;2023-09-19T07:55:19;6.95;;;1.48;;
51985;SDS011;38002;53.296;6.600;2023-09-19T08:00:23;10.50;;;1.77;;
51985;SDS011;38002;53.296;6.600;2023-09-19T08:05:24;10.17;;;2.67;;
51985;SDS011;38002;53.296;6.600;2023-09-19T08:10:24;7.00;;;1.20;;
51985;SDS011;38002;53.296;6.600;2023-09-19T08:15:27;8.40;;;2.00;;
51985;SDS011;38002;53.296;6.600;2023-09-19T08:20:28;10.10;;;1.50;;
51985;SDS011;38002;53.296;6.600;2023-09-19T08:25:28;10.40;;;1.97;;
51985;SDS011;38002;53.296;6.600;2023-09-19T08:30:29;6.90;;;1.80;;
51985;SDS011;38002;53.296;6.600;2023-09-19T08:35:30;10.60;;;2.08;;
51985;SDS011;38002;53.296;6.600;2023-09-19T08:40:31;11.80;;;2.27;;
51985;SDS011;38002;53.296;6.600;2023-09-19T08:45:33;14.00;;;2.95;;
51985;SDS011;38002;53.296;6.600;2023-09-19T08:50:36;11.93;;;2.33;;
51985;SDS011;38002;53.296;6.600;2023-09-19T08:55:43;13.38;;;2.85;;
51985;SDS011;38002;53.296;6.600;2023-09-19T09:00:47;7.53;;;1.75;;
51985;SDS011;38002;53.296;6.600;2023-09-19T09:05:51;9.20;;;2.10;;
51985;SDS011;38002;53.296;6.600;2023-09-19T09:10:52;13.40;;;2.42;;
51985;SDS011;38002;53.296;6.600;2023-09-19T09:15:53;6.90;;;1.70;;
51985;SDS011;38002;53.296;6.600;2023-09-19T09:20:54;6.78;;;1.55;;
51985;SDS011;38002;53.296;6.600;2023-09-19T09:25:56;8.50;;;1.83;;
51985;SDS011;38002;53.296;6.600;2023-09-19T09:30:57;6.03;;;1.83;;
51985;SDS011;38002;53.296;6.600;2023-09-19T09:35:58;9.65;;;2.47;;
51985;SDS011;38002;53.296;6.600;2023-09-19T09:41:03;12.05;;;2.33;;
51985;SDS011;38002;53.296;6.600;2023-09-19T09:51:29;8.73;;;2.28;;
51985;SDS011;38002;53.296;6.600;2023-09-19T09:56:31;8.75;;;2.95;;
51985;SDS011;38002;53.296;6.600;2023-09-19T10:01:47;7.00;;;2.92;;
51985;SDS011;38002;53.296;6.600;2023-09-19T10:06:53;10.77;;;2.20;;
51985;SDS011;38002;53.296;6.600;2023-09-19T10:12:05;14.10;;;2.53;;
51985;SDS011;38002;53.296;6.600;2023-09-19T10:17:09;10.88;;;2.42;;
51985;SDS011;38002;53.296;6.600;2023-09-19T10:22:10;8.10;;;2.60;;
51985;SDS011;38002;53.296;6.600;2023-09-19T10:27:13;9.30;;;2.28;;
51985;SDS011;38002;53.296;6.600;2023-09-19T10:32:19;10.77;;;2.60;;
51985;SDS011;38002;53.296;6.600;2023-09-19T10:37:23;27.98;;;3.75;;
51985;SDS011;38002;53.296;6.600;2023-09-19T10:42:26;10.75;;;2.30;;
51985;SDS011;38002;53.296;6.600;2023-09-19T10:47:29;13.13;;;3.35;;
51985;SDS011;38002;53.296;6.600;2023-09-19T10:52:31;9.68;;;2.35;;
51985;SDS011;38002;53.296;6.600;2023-09-19T10:57:34;12.95;;;2.38;;
51985;SDS011;38002;53.296;6.600;2023-09-19T11:02:36;13.75;;;2.63;;
51985;SDS011;38002;53.296;6.600;2023-09-19T11:12:57;8.85;;;3.03;;
51985;SDS011;38002;53.296;6.600;2023-09-19T11:17:58;11.70;;;3.10;;
51985;SDS011;38002;53.296;6.600;2023-09-19T11:33:29;10.43;;;2.53;;
51985;SDS011;38002;53.296;6.600;2023-09-19T11:43:42;7.25;;;1.75;;
51985;SDS011;38002;53.296;6.600;2023-09-19T11:48:43;8.87;;;2.30;;
51985;SDS011;38002;53.296;6.600;2023-09-19T11:58:45;10.67;;;2.17;;
51985;SDS011;38002;53.296;6.600;2023-09-19T12:03:47;5.57;;;2.13;;
51985;SDS011;38002;53.296;6.600;2023-09-19T12:08:52;10.05;;;2.03;;
51985;SDS011;38002;53.296;6.600;2023-09-19T12:13:54;11.32;;;1.90;;
51985;SDS011;38002;53.296;6.600;2023-09-19T12:18:58;12.75;;;1.90;;
51985;SDS011;38002;53.296;6.600;2023-09-19T12:24:20;11.75;;;2.05;;
51985;SDS011;38002;53.296;6.600;2023-09-19T12:29:21;13.67;;;2.80;;
51985;SDS011;38002;53.296;6.600;2023-09-19T12:34:22;14.82;;;3.17;;
51985;SDS011;38002;53.296;6.600;2023-09-19T12:39:27;11.77;;;3.85;;
51985;SDS011;38002;53.296;6.600;2023-09-19T12:44:30;10.82;;;2.08;;
51985;SDS011;38002;53.296;6.600;2023-09-19T12:49:30;9.60;;;3.63;;
51985;SDS011;38002;53.296;6.600;2023-09-19T12:54:40;9.50;;;2.03;;
51985;SDS011;38002;53.296;6.600;2023-09-19T12:59:41;7.85;;;2.55;;
51985;SDS011;38002;53.296;6.600;2023-09-19T13:04:42;9.77;;;2.90;;
51985;SDS011;38002;53.296;6.600;2023-09-19T13:10:02;6.85;;;1.73;;
51985;SDS011;38002;53.296;6.600;2023-09-19T13:15:11;11.57;;;1.80;;
51985;SDS011;38002;53.296;6.600;2023-09-19T13:20:21;7.43;;;1.70;;
51985;SDS011;38002;53.296;6.600;2023-09-19T13:25:27;8.98;;;2.17;;
51985;SDS011;38002;53.296;6.600;2023-09-19T13:30:30;7.20;;;1.65;;
51985;SDS011;38002;53.296;6.600;2023-09-19T13:40:32;4.70;;;2.03;;
51985;SDS011;38002;53.296;6.600;2023-09-19T13:45:35;4.45;;;1.52;;
51985;SDS011;38002;53.296;6.600;2023-09-19T13:50:37;7.45;;;1.40;;
51985;SDS011;38002;53.296;6.600;2023-09-19T13:55:42;5.43;;;2.15;;
51985;SDS011;38002;53.296;6.600;2023-09-19T14:00:42;6.60;;;1.50;;
51985;SDS011;38002;53.296;6.600;2023-09-19T14:05:43;6.23;;;2.03;;
51985;SDS011;38002;53.296;6.600;2023-09-19T14:10:43;5.90;;;1.73;;
51985;SDS011;38002;53.296;6.600;2023-09-19T14:15:44;6.63;;;1.70;;
51985;SDS011;38002;53.296;6.600;2023-09-19T14:20:45;7.47;;;1.63;;
51985;SDS011;38002;53.296;6.600;2023-09-19T14:25:46;6.73;;;1.57;;
51985;SDS011;38002;53.296;6.600;2023-09-19T14:30:46;6.43;;;1.13;;
51985;SDS011;38002;53.296;6.600;2023-09-19T14:35:49;7.55;;;1.08;;
51985;SDS011;38002;53.296;6.600;2023-09-19T14:40:58;3.60;;;1.43;;
51985;SDS011;38002;53.296;6.600;2023-09-19T14:46:04;5.18;;;1.33;;
51985;SDS011;38002;53.296;6.600;2023-09-19T14:51:07;3.63;;;1.50;;
51985;SDS011;38002;53.296;6.600;2023-09-19T14:56:12;3.88;;;1.52;;
51985;SDS011;38002;53.296;6.600;2023-09-19T15:01:16;2.50;;;1.20;;
51985;SDS011;38002;53.296;6.600;2023-09-19T15:06:16;8.20;;;1.60;;
51985;SDS011;38002;53.296;6.600;2023-09-19T15:11:19;7.30;;;1.40;;
51985;SDS011;38002;53.296;6.600;2023-09-19T15:16:20;4.60;;;1.50;;
51985;SDS011;38002;53.296;6.600;2023-09-19T15:21:26;13.20;;;2.10;;
51985;SDS011;38002;53.296;6.600;2023-09-19T15:26:28;8.13;;;1.50;;
51985;SDS011;38002;53.296;6.600;2023-09-19T15:36:30;3.77;;;1.43;;
51985;SDS011;38002;53.296;6.600;2023-09-19T15:41:35;5.00;;;1.70;;
51985;SDS011;38002;53.296;6.600;2023-09-19T15:46:40;6.00;;;1.73;;
51985;SDS011;38002;53.296;6.600;2023-09-19T15:51:41;5.57;;;2.00;;
51985;SDS011;38002;53.296;6.600;2023-09-19T15:56:45;5.97;;;1.67;;
51985;SDS011;38002;53.296;6.600;2023-09-19T16:01:46;2.97;;;1.60;;
51985;SDS011;38002;53.296;6.600;2023-09-19T16:06:48;7.65;;;1.90;;
51985;SDS011;38002;53.296;6.600;2023-09-19T16:11:49;3.00;;;1.50;;
51985;SDS011;38002;53.296;6.600;2023-09-19T16:16:49;4.37;;;1.60;;
51985;SDS011;38002;53.296;6.600;2023-09-19T16:21:50;5.03;;;1.70;;
51985;SDS011;38002;53.296;6.600;2023-09-19T16:26:50;1.93;;;1.20;;
51985;SDS011;38002;53.296;6.600;2023-09-19T16:31:52;7.35;;;1.70;;
51985;SDS011;38002;53.296;6.600;2023-09-19T16:41:54;5.40;;;1.83;;
51985;SDS011;38002;53.296;6.600;2023-09-19T16:46:57;3.85;;;1.70;;
51985;SDS011;38002;53.296;6.600;2023-09-19T16:51:58;9.03;;;1.67;;
51985;SDS011;38002;53.296;6.600;2023-09-19T16:56:58;2.63;;;1.37;;
51985;SDS011;38002;53.296;6.600;2023-09-19T17:01:59;3.50;;;1.40;;
51985;SDS011;38002;53.296;6.600;2023-09-19T17:06:59;5.07;;;1.87;;
51985;SDS011;38002;53.296;6.600;2023-09-19T17:12:00;5.43;;;2.13;;
51985;SDS011;38002;53.296;6.600;2023-09-19T17:17:03;7.65;;;2.00;;
51985;SDS011;38002;53.296;6.600;2023-09-19T17:22:04;6.73;;;2.10;;
51985;SDS011;38002;53.296;6.600;2023-09-19T17:27:05;3.90;;;1.75;;
51985;SDS011;38002;53.296;6.600;2023-09-19T17:32:05;6.33;;;2.43;;
51985;SDS011;38002;53.296;6.600;2023-09-19T17:37:07;8.73;;;2.35;;
51985;SDS011;38002;53.296;6.600;2023-09-19T17:42:08;8.00;;;2.20;;
51985;SDS011;38002;53.296;6.600;2023-09-19T17:47:12;9.48;;;3.08;;
51985;SDS011;38002;53.296;6.600;2023-09-19T17:52:13;5.87;;;2.50;;
51985;SDS011;38002;53.296;6.600;2023-09-19T18:02:16;7.10;;;2.20;;
51985;SDS011;38002;53.296;6.600;2023-09-19T18:07:16;6.93;;;2.53;;
51985;SDS011;38002;53.296;6.600;2023-09-19T18:12:17;7.27;;;3.10;;
51985;SDS011;38002;53.296;6.600;2023-09-19T18:17:17;5.70;;;2.63;;
51985;SDS011;38002;53.296;6.600;2023-09-19T18:22:18;7.20;;;1.90;;
51985;SDS011;38002;53.296;6.600;2023-09-19T18:27:18;13.13;;;2.93;;
51985;SDS011;38002;53.296;6.600;2023-09-19T18:32:20;6.25;;;2.28;;
51985;SDS011;38002;53.296;6.600;2023-09-19T18:37:20;3.63;;;2.00;;
51985;SDS011;38002;53.296;6.600;2023-09-19T18:42:21;4.83;;;1.97;;
51985;SDS011;38002;53.296;6.600;2023-09-19T18:47:23;7.57;;;2.47;;
51985;SDS011;38002;53.296;6.600;2023-09-19T18:52:27;12.57;;;2.97;;
51985;SDS011;38002;53.296;6.600;2023-09-19T18:57:28;4.47;;;2.07;;
51985;SDS011;38002;53.296;6.600;2023-09-19T19:02:28;8.10;;;2.93;;
51985;SDS011;38002;53.296;6.600;2023-09-19T19:07:29;6.30;;;2.90;;
51985;SDS011;38002;53.296;6.600;2023-09-19T19:12:31;7.63;;;2.57;;
51985;SDS011;38002;53.296;6.600;2023-09-19T19:17:35;4.47;;;2.88;;
51985;SDS011;38002;53.296;6.600;2023-09-19T19:22:37;6.25;;;2.80;;
51985;SDS011;38002;53.296;6.600;2023-09-19T19:27:37;5.80;;;3.10;;
51985;SDS011;38002;53.296;6.600;2023-09-19T19:32:38;5.80;;;2.87;;
51985;SDS011;38002;53.296;6.600;2023-09-19T19:37:39;9.60;;;3.40;;
51985;SDS011;38002;53.296;6.600;2023-09-19T19:42:39;3.93;;;2.90;;
51985;SDS011;38002;53.296;6.600;2023-09-19T19:47:39;4.33;;;3.00;;
51985;SDS011;38002;53.296;6.600;2023-09-19T19:52:40;8.53;;;3.60;;
51985;SDS011;38002;53.296;6.600;2023-09-19T19:57:41;4.70;;;3.20;;
51985;SDS011;38002;53.296;6.600;2023-09-19T20:02:43;5.00;;;3.13;;
51985;SDS011;38002;53.296;6.600;2023-09-19T20:07:44;6.60;;;3.25;;
51985;SDS011;38002;53.296;6.600;2023-09-19T20:12:45;9.40;;;3.47;;
51985;SDS011;38002;53.296;6.600;2023-09-19T20:17:47;8.02;;;3.55;;
51985;SDS011;38002;53.296;6.600;2023-09-19T20:22:49;7.55;;;3.50;;
51985;SDS011;38002;53.296;6.600;2023-09-19T20:27:50;6.67;;;2.73;;
51985;SDS011;38002;53.296;6.600;2023-09-19T20:32:50;6.37;;;3.00;;
51985;SDS011;38002;53.296;6.600;2023-09-19T20:37:51;4.10;;;2.57;;
51985;SDS011;38002;53.296;6.600;2023-09-19T20:42:52;6.78;;;3.55;;
51985;SDS011;38002;53.296;6.600;2023-09-19T20:47:54;9.13;;;3.17;;
51985;SDS011;38002;53.296;6.600;2023-09-19T20:52:54;6.97;;;3.33;;
51985;SDS011;38002;53.296;6.600;2023-09-19T20:57:54;7.63;;;3.37;;
51985;SDS011;38002;53.296;6.600;2023-09-19T21:02:55;6.47;;;3.33;;
51985;SDS011;38002;53.296;6.600;2023-09-19T21:07:56;12.00;;;4.50;;
51985;SDS011;38002;53.296;6.600;2023-09-19T21:12:56;13.80;;;4.00;;
51985;SDS011;38002;53.296;6.600;2023-09-19T21:17:57;6.80;;;3.88;;
51985;SDS011;38002;53.296;6.600;2023-09-19T21:22:58;8.23;;;3.57;;
51985;SDS011;38002;53.296;6.600;2023-09-19T21:27:59;6.50;;;3.87;;
51985;SDS011;38002;53.296;6.600;2023-09-19T21:32:59;6.80;;;3.50;;
51985;SDS011;38002;53.296;6.600;2023-09-19T21:38:00;11.47;;;4.20;;
51985;SDS011;38002;53.296;6.600;2023-09-19T21:43:01;8.73;;;3.73;;
51985;SDS011;38002;53.296;6.600;2023-09-19T21:48:02;10.88;;;4.10;;
51985;SDS011;38002;53.296;6.600;2023-09-19T21:53:03;9.82;;;3.70;;
51985;SDS011;38002;53.296;6.600;2023-09-19T21:58:04;6.40;;;3.60;;
51985;SDS011;38002;53.296;6.600;2023-09-19T22:03:05;8.13;;;3.67;;
51985;SDS011;38002;53.296;6.600;2023-09-19T22:08:09;8.02;;;3.67;;
51985;SDS011;38002;53.296;6.600;2023-09-19T22:13:11;11.13;;;4.00;;
51985;SDS011;38002;53.296;6.600;2023-09-19T22:18:22;8.00;;;3.60;;
51985;SDS011;38002;53.296;6.600;2023-09-19T22:23:23;8.40;;;3.80;;
51985;SDS011;38002;53.296;6.600;2023-09-19T22:28:35;9.50;;;4.10;;
51985;SDS011;38002;53.296;6.600;2023-09-19T22:33:38;9.57;;;3.70;;
51985;SDS011;38002;53.296;6.600;2023-09-19T22:38:40;12.52;;;4.10;;
51985;SDS011;38002;53.296;6.600;2023-09-19T22:43:41;8.10;;;3.73;;
51985;SDS011;38002;53.296;6.600;2023-09-19T22:48:48;8.63;;;4.03;;
51985;SDS011;38002;53.296;6.600;2023-09-19T22:53:50;6.78;;;4.25;;
51985;SDS011;38002;53.296;6.600;2023-09-19T22:58:59;8.57;;;4.70;;
51985;SDS011;38002;53.296;6.600;2023-09-19T23:04:01;10.30;;;4.70;;
51985;SDS011;38002;53.296;6.600;2023-09-19T23:09:11;12.00;;;4.15;;
51985;SDS011;38002;53.296;6.600;2023-09-19T23:14:37;9.10;;;4.03;;
51985;SDS011;38002;53.296;6.600;2023-09-19T23:19:41;14.27;;;4.28;;
51985;SDS011;38002;53.296;6.600;2023-09-19T23:24:43;10.05;;;3.88;;
51985;SDS011;38002;53.296;6.600;2023-09-19T23:29:45;6.05;;;3.17;;
51985;SDS011;38002;53.296;6.600;2023-09-19T23:34:46;8.97;;;3.17;;
51985;SDS011;38002;53.296;6.600;2023-09-19T23:39:47;12.20;;;4.10;;
51985;SDS011;38002;53.296;6.600;2023-09-19T23:44:47;5.87;;;3.13;;
51985;SDS011;38002;53.296;6.600;2023-09-19T23:49:51;7.85;;;3.72;;
51985;SDS011;38002;53.296;6.600;2023-09-19T23:54:53;8.57;;;4.28;;
51985;SDS011;38002;53.296;6.600;2023-09-19T23:59:53;5.70;;;3.63;;
